Time;durP1;ratioP1;P1;durP2;ratioP2;P2;SDS_P1;SDS_P2;PMS_P1;PMS_P2;Temp;Humidity;BMP_temperature;BMP_pressure;BME280_temperature;BME280_humidity;BME280_pressure;Samples;Min_cycle;Max_cycle;Signal;HPM_P1;HPM_P2
2021/10/26 00:01:42;;;;;;;25.13;11.20;;;;;;;0.84;nan;101874.53;5082187;28;20123;-56
2021/10/26 00:04:08;;;;;;;25.90;12.50;;;;;;;1.04;nan;101869.84;5084244;28;20032;-56
2021/10/26 00:06:34;;;;;;;27.88;11.50;;;;;;;1.26;nan;101872.88;5085071;28;20031;-55
2021/10/26 00:09:00;;;;;;;30.92;14.32;;;;;;;1.40;nan;101877.56;5083473;28;20027;-56
2021/10/26 00:11:26;;;;;;;26.52;12.60;;;;;;;1.50;nan;101873.81;5084354;28;20310;-56
2021/10/26 00:13:51;;;;;;;27.27;13.05;;;;;;;1.44;nan;101881.56;5085716;28;20027;-55
2021/10/26 00:16:18;;;;;;;25.35;12.32;;;;;;;1.39;nan;101878.56;5083958;28;20043;-53
2021/10/26 00:18:44;;;;;;;24.70;13.30;;;;;;;1.38;nan;101871.63;5084134;28;20154;-54
2021/10/26 00:21:10;;;;;;;33.72;14.40;;;;;;;1.44;nan;101874.47;5084032;28;20114;-53
2021/10/26 00:23:35;;;;;;;27.65;12.63;;;;;;;1.46;nan;101864.56;5083852;28;20028;-53
2021/10/26 00:26:03;;;;;;;25.73;12.07;;;;;;;1.50;nan;101860.59;5082147;28;20039;-56
2021/10/26 00:28:29;;;;;;;27.30;12.15;;;;;;;1.52;nan;101868.38;5084756;28;20024;-56
2021/10/26 00:30:54;;;;;;;28.75;15.00;;;;;;;1.51;nan;101862.25;5066450;28;20028;-56
2021/10/26 00:33:20;;;;;;;25.05;13.30;;;;;;;1.60;nan;101864.91;5083811;28;20346;-52
2021/10/26 00:35:46;;;;;;;25.42;12.95;;;;;;;1.63;nan;101868.06;5086802;28;20097;-53
2021/10/26 00:38:12;;;;;;;20.83;11.35;;;;;;;1.49;nan;101858.94;5085154;28;20020;-54
2021/10/26 00:40:37;;;;;;;29.83;13.32;;;;;;;1.47;nan;101866.22;5082866;28;20437;-56
2021/10/26 00:43:03;;;;;;;26.55;13.70;;;;;;;1.52;nan;101871.84;5085710;28;20031;-55
2021/10/26 00:45:28;;;;;;;30.88;14.15;;;;;;;1.58;nan;101866.88;5085115;28;20031;-53
2021/10/26 00:47:54;;;;;;;26.10;14.85;;;;;;;1.57;nan;101870.50;5085026;28;20031;-53
2021/10/26 00:50:19;;;;;;;34.25;16.67;;;;;;;1.64;nan;101863.63;5085326;28;20035;-56
2021/10/26 00:52:45;;;;;;;32.17;16.50;;;;;;;1.67;nan;101866.75;5085442;28;20142;-53
2021/10/26 00:55:11;;;;;;;33.58;15.75;;;;;;;1.73;nan;101870.56;5084477;28;20461;-55
2021/10/26 00:57:37;;;;;;;26.23;12.63;;;;;;;1.75;nan;101869.41;5080745;28;20051;-55
2021/10/26 01:00:04;;;;;;;29.83;14.18;;;;;;;1.76;nan;101864.94;5081805;28;20034;-55
2021/10/26 01:02:30;;;;;;;24.27;13.98;;;;;;;1.81;nan;101868.75;5082467;28;20385;-55
2021/10/26 01:04:55;;;;;;;32.13;16.55;;;;;;;1.82;nan;101872.22;5084163;28;20032;-53
2021/10/26 01:07:21;;;;;;;29.30;15.57;;;;;;;1.82;nan;101866.94;5082361;28;20221;-55
2021/10/26 01:09:46;;;;;;;24.75;13.77;;;;;;;1.80;nan;101877.69;5080780;28;20053;-53
2021/10/26 01:12:13;;;;;;;27.50;14.18;;;;;;;1.80;nan;101871.56;5083371;28;20072;-53
2021/10/26 01:14:40;;;;;;;27.15;13.93;;;;;;;1.69;nan;101872.69;5080962;28;20042;-55
2021/10/26 01:17:09;;;;;;;23.63;12.40;;;;;;;1.49;nan;101877.44;5083062;28;20509;-52
2021/10/26 01:19:46;;;;;;;34.58;16.15;;;;;;;1.35;nan;101883.31;5079706;28;20028;-56
2021/10/26 01:22:12;;;;;;;29.67;15.70;;;;;;;1.45;nan;101878.75;5082169;28;20110;-54
2021/10/26 01:24:38;;;;;;;24.27;13.00;;;;;;;1.58;nan;101872.16;5081384;28;20028;-54
2021/10/26 01:27:04;;;;;;;28.15;14.07;;;;;;;1.63;nan;101869.88;5083120;28;20200;-56
2021/10/26 01:29:29;;;;;;;24.27;13.93;;;;;;;1.67;nan;101865.94;5081461;28;20028;-56
2021/10/26 01:31:55;;;;;;;30.73;15.85;;;;;;;1.73;nan;101855.53;5083283;28;20054;-54
2021/10/26 01:34:20;;;;;;;29.05;15.38;;;;;;;1.75;nan;101853.53;5084769;28;20351;-54
2021/10/26 01:36:48;;;;;;;26.67;12.82;;;;;;;1.80;nan;101853.06;5086206;28;20035;-56
2021/10/26 01:39:14;;;;;;;26.77;13.85;;;;;;;1.86;nan;101852.41;5086779;28;20516;-56
2021/10/26 01:41:40;;;;;;;29.98;15.80;;;;;;;1.88;nan;101868.94;5088745;28;20040;-54
2021/10/26 01:44:05;;;;;;;26.85;14.93;;;;;;;1.93;nan;101860.50;5085374;28;20538;-55
2021/10/26 01:46:30;;;;;;;31.80;14.73;;;;;;;2.04;nan;101863.66;5086898;28;20108;-53
2021/10/26 01:48:56;;;;;;;28.33;14.40;;;;;;;2.10;nan;101862.97;5084785;28;20022;-54
2021/10/26 01:51:21;;;;;;;32.38;15.90;;;;;;;2.16;nan;101866.81;5086486;28;20470;-53
2021/10/26 01:53:47;;;;;;;29.92;16.23;;;;;;;2.18;nan;101862.19;5084092;28;20106;-55
2021/10/26 01:56:12;;;;;;;31.23;15.00;;;;;;;2.25;nan;101870.25;5086812;28;20084;-53
2021/10/26 01:58:38;;;;;;;29.27;15.32;;;;;;;2.28;nan;101867.28;5086736;28;20024;-55
2021/10/26 02:01:04;;;;;;;30.52;15.63;;;;;;;2.35;nan;101861.19;5084914;28;20179;-53
2021/10/26 02:03:29;;;;;;;33.53;15.90;;;;;;;2.41;nan;101867.59;5085676;28;20307;-53
2021/10/26 02:05:55;;;;;;;27.38;15.57;;;;;;;2.52;nan;101861.97;5085949;28;20051;-55
2021/10/26 02:08:20;;;;;;;28.70;14.40;;;;;;;2.60;nan;101864.59;5085384;28;21789;-55
2021/10/26 02:10:46;;;;;;;25.27;13.85;;;;;;;2.67;nan;101860.28;5084217;28;20028;-57
2021/10/26 02:13:14;;;;;;;23.02;12.65;;;;;;;2.76;nan;101853.16;5085572;28;20015;-54
2021/10/26 02:15:40;;;;;;;22.55;12.35;;;;;;;2.85;nan;101844.19;5085699;28;20299;-55
2021/10/26 02:18:05;;;;;;;25.52;13.82;;;;;;;2.82;nan;101844.53;5084999;28;20028;-53
2021/10/26 02:20:31;;;;;;;21.80;12.82;;;;;;;2.92;nan;101839.06;5085528;28;20520;-56
2021/10/26 02:22:56;;;;;;;22.02;13.13;;;;;;;3.01;nan;101824.78;5084893;28;20020;-55
2021/10/26 02:25:22;;;;;;;24.42;12.65;;;;;;;3.10;nan;101823.75;5086767;28;20039;-55
2021/10/26 02:27:47;;;;;;;22.52;13.65;;;;;;;3.18;nan;101830.81;5085921;28;20496;-56
2021/10/26 02:30:13;;;;;;;29.88;15.32;;;;;;;3.05;nan;101855.19;5085382;28;20107;-55
2021/10/26 02:32:38;;;;;;;31.25;16.05;;;;;;;3.06;nan;101872.75;5084870;28;20032;-53
2021/10/26 02:35:05;;;;;;;31.92;15.25;;;;;;;3.08;nan;101859.34;5085967;28;20035;-55
2021/10/26 02:37:30;;;;;;;29.60;15.38;;;;;;;3.14;nan;101869.25;5085782;28;20545;-56
2021/10/26 02:39:56;;;;;;;22.15;12.63;;;;;;;3.26;nan;101855.47;5085997;28;20032;-54
2021/10/26 02:42:22;;;;;;;24.38;13.73;;;;;;;3.39;nan;101846.09;5065874;28;20032;-54
2021/10/26 02:44:47;;;;;;;27.67;14.55;;;;;;;3.44;nan;101870.28;5085447;28;20055;-56
2021/10/26 02:47:13;;;;;;;24.48;14.35;;;;;;;3.48;nan;101858.31;5085155;28;20057;-53
2021/10/26 02:49:39;;;;;;;27.70;13.48;;;;;;;3.53;nan;101870.03;5084245;28;20583;-53
2021/10/26 02:52:04;;;;;;;28.10;14.68;;;;;;;3.61;nan;101858.59;5085112;28;20495;-54
2021/10/26 02:54:30;;;;;;;29.60;14.98;;;;;;;3.66;nan;101850.09;5084629;28;20024;-55
2021/10/26 02:56:56;;;;;;;32.15;13.80;;;;;;;3.71;nan;101859.16;5083082;28;20512;-55
2021/10/26 02:59:24;;;;;;;23.33;13.32;;;;;;;3.71;nan;101848.56;5084715;28;20035;-54
2021/10/26 03:01:49;;;;;;;25.73;14.00;;;;;;;3.79;nan;101843.22;5082878;28;20032;-54
2021/10/26 03:04:15;;;;;;;22.23;13.07;;;;;;;3.85;nan;101842.50;5080056;28;20027;-55
2021/10/26 03:06:43;;;;;;;27.77;14.13;;;;;;;3.90;nan;101837.50;5084636;28;20037;-54
2021/10/26 03:09:08;;;;;;;26.52;12.50;;;;;;;3.92;nan;101840.78;5086029;28;20114;-55
2021/10/26 03:11:34;;;;;;;23.85;13.85;;;;;;;3.92;nan;101842.63;5084326;28;20072;-56
2021/10/26 03:14:00;;;;;;;28.02;13.77;;;;;;;3.91;nan;101844.44;5065166;28;20509;-56
2021/10/26 03:16:25;;;;;;;23.25;13.10;;;;;;;3.98;nan;101852.53;5084537;28;20039;-54
2021/10/26 03:18:51;;;;;;;23.50;14.35;;;;;;;4.05;nan;101849.97;5084282;28;20103;-58
2021/10/26 03:21:16;;;;;;;24.55;14.35;;;;;;;4.11;nan;101838.66;5083774;28;20023;-57
2021/10/26 03:23:42;;;;;;;26.55;13.85;;;;;;;4.14;nan;101849.75;5083867;28;20048;-57
2021/10/26 03:26:07;;;;;;;19.30;11.35;;;;;;;4.16;nan;101852.22;5083800;28;20031;-54
2021/10/26 03:28:33;;;;;;;22.83;13.13;;;;;;;4.19;nan;101857.16;5082510;28;20036;-57
2021/10/26 03:31:01;;;;;;;22.33;12.68;;;;;;;4.18;nan;101850.22;5082637;28;20024;-56
2021/10/26 03:33:27;;;;;;;25.02;14.70;;;;;;;4.16;nan;101854.88;5079833;28;20316;-57
2021/10/26 03:35:54;;;;;;;28.60;13.93;;;;;;;4.03;nan;101859.94;5084661;28;20028;-54
2021/10/26 03:38:20;;;;;;;23.08;13.45;;;;;;;3.99;nan;101866.59;5085711;28;20032;-54
2021/10/26 03:40:45;;;;;;;25.65;13.52;;;;;;;3.90;nan;101866.66;5067026;28;20262;-55
2021/10/26 03:43:11;;;;;;;23.70;14.15;;;;;;;3.74;nan;101860.63;5083108;28;20023;-55
2021/10/26 03:45:37;;;;;;;25.83;13.45;;;;;;;3.73;nan;101864.28;5082262;28;20525;-56
2021/10/26 03:48:02;;;;;;;28.95;14.55;;;;;;;3.68;nan;101864.00;5084649;28;20466;-56
2021/10/26 03:50:28;;;;;;;23.25;12.98;;;;;;;3.66;nan;101868.66;5083685;28;20043;-55
2021/10/26 03:52:53;;;;;;;25.00;13.88;;;;;;;3.62;nan;101861.06;5085454;28;20031;-54
2021/10/26 03:55:20;;;;;;;23.42;13.52;;;;;;;3.61;nan;101856.75;5081933;28;20028;-54
2021/10/26 03:57:46;;;;;;;23.73;12.75;;;;;;;3.58;nan;101850.97;5083540;28;20195;-57
2021/10/26 04:00:12;;;;;;;26.98;13.70;;;;;;;3.55;nan;101853.97;5083861;28;20028;-54
2021/10/26 04:02:41;;;;;;;24.00;14.63;;;;;;;3.52;nan;101849.03;5083178;28;20031;-54
2021/10/26 04:05:18;;;;;;;31.65;14.90;;;;;;;3.49;nan;101842.25;5082993;28;20024;-57
2021/10/26 04:07:50;;;;;;;26.75;14.18;;;;;;;3.52;nan;101838.41;5084544;28;20046;-56
2021/10/26 04:10:20;;;;;;;24.77;14.90;;;;;;;3.54;nan;101831.94;5082239;28;20085;-54
2021/10/26 04:12:46;;;;;;;21.20;13.38;;;;;;;3.53;nan;101837.41;5084737;28;20020;-55
2021/10/26 04:15:11;;;;;;;26.40;13.48;;;;;;;3.61;nan;101843.50;5082009;28;20112;-55
2021/10/26 04:17:37;;;;;;;24.27;13.90;;;;;;;3.70;nan;101851.38;5083621;28;20020;-57
2021/10/26 04:20:03;;;;;;;24.40;13.45;;;;;;;3.75;nan;101844.56;5082662;28;20036;-56
2021/10/26 04:22:28;;;;;;;19.50;12.60;;;;;;;3.76;nan;101843.56;5082380;28;20026;-57
2021/10/26 04:24:53;;;;;;;23.17;12.80;;;;;;;3.77;nan;101826.69;5082487;28;20093;-54
2021/10/26 04:27:20;;;;;;;22.92;11.60;;;;;;;3.82;nan;101829.59;5085899;28;20034;-56
2021/10/26 04:29:46;;;;;;;25.52;14.65;;;;;;;3.83;nan;101828.59;5080005;28;20032;-56
2021/10/26 04:32:13;;;;;;;23.52;14.10;;;;;;;3.84;nan;101838.22;5084688;28;20072;-56
2021/10/26 04:34:39;;;;;;;27.80;14.52;;;;;;;3.92;nan;101839.97;5079416;28;20021;-53
2021/10/26 04:37:09;;;;;;;23.85;14.20;;;;;;;3.96;nan;101835.97;5082772;28;20516;-57
2021/10/26 04:39:37;;;;;;;22.15;14.02;;;;;;;4.01;nan;101836.25;5081340;28;20103;-55
2021/10/26 04:42:04;;;;;;;25.98;13.68;;;;;;;4.10;nan;101840.47;5083187;28;20028;-55
2021/10/26 04:44:30;;;;;;;23.02;12.80;;;;;;;4.16;nan;101837.13;5079655;28;20028;-55
2021/10/26 04:46:55;;;;;;;26.23;13.63;;;;;;;4.23;nan;101838.03;5084622;28;20020;-54
2021/10/26 04:49:21;;;;;;;26.85;14.98;;;;;;;4.24;nan;101841.53;5084560;28;20043;-54
2021/10/26 04:51:47;;;;;;;23.35;13.68;;;;;;;4.28;nan;101842.81;5062989;28;20036;-53
2021/10/26 04:54:12;;;;;;;22.08;13.20;;;;;;;4.32;nan;101846.78;5078565;28;20027;-58
2021/10/26 04:56:38;;;;;;;23.98;14.00;;;;;;;4.20;nan;101854.31;5078796;28;20062;-58
2021/10/26 04:59:03;;;;;;;23.55;13.55;;;;;;;4.23;nan;101848.66;5078366;28;20807;-54
2021/10/26 05:01:29;;;;;;;26.77;15.20;;;;;;;4.25;nan;101853.78;5079884;28;20020;-59
2021/10/26 05:03:55;;;;;;;26.85;14.80;;;;;;;4.25;nan;101853.78;5061806;28;20059;-56
2021/10/26 05:06:20;;;;;;;24.98;14.38;;;;;;;4.25;nan;101853.78;5079029;28;20443;-55
2021/10/26 05:08:51;;;;;;;25.45;14.07;;;;;;;4.28;nan;101844.63;5079474;28;20024;-56
2021/10/26 05:11:17;;;;;;;21.25;14.10;;;;;;;4.36;nan;101845.41;5085031;28;20137;-54
2021/10/26 05:13:42;;;;;;;22.88;13.02;;;;;;;4.39;nan;101850.34;5086863;28;20023;-56
2021/10/26 05:16:08;;;;;;;25.52;14.65;;;;;;;4.43;nan;101854.28;5087465;28;20406;-56
2021/10/26 05:18:38;;;;;;;22.83;13.48;;;;;;;4.47;nan;101852.09;5081364;28;20405;-58
2021/10/26 05:21:05;;;;;;;29.58;14.93;;;;;;;4.47;nan;101852.09;5086852;28;20031;-54
2021/10/26 05:23:31;;;;;;;23.25;13.90;;;;;;;4.48;nan;101859.88;5086239;28;21281;-56
2021/10/26 05:25:56;;;;;;;25.15;13.20;;;;;;;4.50;nan;101862.38;5079988;28;20504;-57
2021/10/26 05:28:22;;;;;;;25.30;13.43;;;;;;;4.47;nan;101860.03;5065031;28;20040;-53
2021/10/26 05:30:48;;;;;;;21.05;13.70;;;;;;;4.50;nan;101857.88;5080868;28;20482;-56
2021/10/26 05:33:14;;;;;;;19.70;12.40;;;;;;;4.50;nan;101857.88;5079242;28;20480;-54
2021/10/26 05:35:39;;;;;;;22.80;13.73;;;;;;;4.49;nan;101858.06;5085018;28;20028;-57
2021/10/26 05:38:04;;;;;;;24.20;14.45;;;;;;;4.49;nan;101853.56;5085275;28;20505;-56
2021/10/26 05:40:30;;;;;;;23.63;13.32;;;;;;;4.53;nan;101848.72;5076810;28;20059;-54
2021/10/26 05:42:55;;;;;;;25.98;13.65;;;;;;;4.55;nan;101847.53;5082373;28;20052;-57
2021/10/26 05:45:21;;;;;;;29.23;13.55;;;;;;;4.60;nan;101854.94;5085525;28;20281;-53
2021/10/26 05:47:48;;;;;;;24.17;13.75;;;;;;;4.67;nan;101860.34;5083504;28;20056;-56
2021/10/26 05:50:14;;;;;;;27.40;14.35;;;;;;;4.69;nan;101875.09;5084789;28;20028;-54
2021/10/26 05:52:39;;;;;;;25.75;14.82;;;;;;;4.65;nan;101872.97;5089956;28;20512;-57
2021/10/26 05:55:05;;;;;;;24.25;13.70;;;;;;;4.70;nan;101875.94;5089922;28;20404;-54
2021/10/26 05:57:34;;;;;;;28.73;14.50;;;;;;;4.70;nan;101878.59;5084994;28;20042;-56
2021/10/26 05:59:59;;;;;;;25.92;14.00;;;;;;;4.67;nan;101873.63;5088521;28;20028;-53
2021/10/26 06:02:25;;;;;;;25.30;14.43;;;;;;;4.71;nan;101872.28;5085698;28;20035;-55
2021/10/26 06:04:53;;;;;;;24.55;13.45;;;;;;;4.75;nan;101878.84;5089656;28;20082;-54
2021/10/26 06:07:19;;;;;;;25.67;14.27;;;;;;;4.82;nan;101880.59;5088985;28;20373;-54
2021/10/26 06:09:45;;;;;;;21.20;12.77;;;;;;;4.87;nan;101877.41;5089132;28;20023;-56
2021/10/26 06:12:17;;;;;;;22.83;13.23;;;;;;;4.90;nan;101882.34;5089205;28;20020;-54
2021/10/26 06:14:44;;;;;;;20.75;13.05;;;;;;;4.88;nan;101881.72;5088599;28;20107;-56
2021/10/26 06:17:10;;;;;;;24.23;13.57;;;;;;;4.89;nan;101880.69;5088623;28;20538;-55
2021/10/26 06:19:36;;;;;;;26.52;14.20;;;;;;;4.97;nan;101883.25;5088170;28;20036;-54
2021/10/26 06:22:01;;;;;;;28.10;14.45;;;;;;;5.06;nan;101884.81;5089416;28;20027;-54
2021/10/26 06:24:27;;;;;;;20.52;13.38;;;;;;;5.16;nan;101882.69;5088647;28;20024;-55
2021/10/26 06:26:52;;;;;;;21.85;13.02;;;;;;;5.24;nan;101889.75;5088876;28;20036;-55
2021/10/26 06:29:18;;;;;;;23.40;13.25;;;;;;;5.33;nan;101887.81;5089620;28;20095;-56
2021/10/26 06:31:44;;;;;;;21.60;12.98;;;;;;;5.36;nan;101895.41;5088523;28;20056;-55
2021/10/26 06:34:09;;;;;;;22.70;13.63;;;;;;;5.37;nan;101895.22;5090361;28;20024;-53
2021/10/26 06:36:35;;;;;;;22.92;13.77;;;;;;;5.42;nan;101894.69;5070297;28;20024;-57
2021/10/26 06:39:01;;;;;;;24.17;13.60;;;;;;;5.42;nan;101894.69;5088428;28;20024;-54
2021/10/26 06:41:26;;;;;;;21.17;13.13;;;;;;;5.47;nan;101895.75;5074185;28;20123;-55
2021/10/26 06:43:51;;;;;;;22.48;13.02;;;;;;;5.50;nan;101899.88;5085957;28;20108;-56
2021/10/26 06:46:17;;;;;;;23.98;13.38;;;;;;;5.55;nan;101891.34;5067044;28;20062;-55
2021/10/26 06:48:43;;;;;;;20.52;12.82;;;;;;;5.60;nan;101895.09;5077258;28;20355;-55
2021/10/26 06:51:08;;;;;;;20.63;12.98;;;;;;;5.57;nan;101898.16;5080637;28;20028;-56
2021/10/26 06:53:39;;;;;;;21.08;12.75;;;;;;;5.60;nan;101899.59;5078397;28;20028;-55
2021/10/26 06:56:11;;;;;;;25.67;13.57;;;;;;;5.61;nan;101893.28;5082026;28;20028;-57
2021/10/26 06:58:36;;;;;;;22.90;12.38;;;;;;;5.57;nan;101899.97;5084811;28;20027;-56
2021/10/26 07:01:06;;;;;;;21.75;12.48;;;;;;;5.60;nan;101899.59;5088393;28;20028;-54
2021/10/26 07:03:32;;;;;;;24.58;12.95;;;;;;;5.61;nan;101901.25;5088468;28;20045;-54
2021/10/26 07:05:58;;;;;;;21.13;12.63;;;;;;;5.68;nan;101899.47;5086692;28;20033;-57
2021/10/26 07:08:23;;;;;;;19.30;12.30;;;;;;;5.78;nan;101891.22;5088597;28;20031;-54
2021/10/26 07:10:50;;;;;;;23.40;12.55;;;;;;;5.84;nan;101904.56;5085437;28;20024;-57
2021/10/26 07:13:16;;;;;;;22.27;12.52;;;;;;;5.79;nan;101914.13;5088189;28;20045;-55
2021/10/26 07:15:42;;;;;;;24.80;12.30;;;;;;;5.78;nan;101913.31;5087200;28;20156;-57
2021/10/26 07:18:08;;;;;;;25.98;12.43;;;;;;;5.80;nan;101916.59;5086627;28;20241;-56
2021/10/26 07:20:34;;;;;;;18.80;11.80;;;;;;;5.81;nan;101917.41;5086342;28;20079;-55
2021/10/26 07:22:59;;;;;;;22.20;12.85;;;;;;;5.75;nan;101911.84;5086542;28;20042;-56
2021/10/26 07:25:25;;;;;;;23.13;12.50;;;;;;;5.80;nan;101918.44;5087709;28;20024;-54
2021/10/26 07:27:58;;;;;;;24.98;12.20;;;;;;;5.87;nan;101917.47;5086892;28;20093;-54
2021/10/26 07:30:24;;;;;;;22.23;12.77;;;;;;;5.97;nan;101919.88;5069464;28;20547;-53
2021/10/26 07:32:50;;;;;;;20.80;11.90;;;;;;;6.03;nan;101922.59;5085757;28;20028;-56
2021/10/26 07:35:16;;;;;;;22.20;12.80;;;;;;;6.12;nan;101920.66;5089516;28;20485;-53
2021/10/26 07:37:43;;;;;;;22.08;12.45;;;;;;;6.19;nan;101924.19;5088116;28;20508;-57
2021/10/26 07:40:10;;;;;;;18.35;11.65;;;;;;;6.25;nan;101918.09;5088225;28;20031;-53
2021/10/26 07:42:36;;;;;;;19.10;11.55;;;;;;;6.35;nan;101920.44;5089152;28;20034;-53
2021/10/26 07:45:02;;;;;;;17.35;11.30;;;;;;;6.38;nan;101917.41;5087356;28;20175;-53
2021/10/26 07:47:27;;;;;;;21.20;12.20;;;;;;;6.46;nan;101921.75;5088360;28;20032;-56
2021/10/26 07:49:55;;;;;;;19.20;11.73;;;;;;;6.53;nan;101919.97;5088349;28;20499;-57
2021/10/26 07:52:22;;;;;;;22.00;12.07;;;;;;;6.56;nan;101922.25;5070398;28;20432;-55
2021/10/26 07:54:53;;;;;;;21.38;12.70;;;;;;;6.70;nan;101918.69;5088413;28;20404;-54
2021/10/26 07:57:19;;;;;;;21.33;11.73;;;;;;;6.78;nan;101931.03;5084586;28;20398;-54
2021/10/26 07:59:46;;;;;;;21.55;11.05;;;;;;;6.83;nan;101936.63;5087057;28;20024;-53
2021/10/26 08:02:13;;;;;;;17.63;12.27;;;;;;;6.88;nan;101937.66;5068908;28;20019;-57
2021/10/26 08:04:40;;;;;;;19.23;11.48;;;;;;;6.83;nan;101931.28;5087858;28;20020;-54
2021/10/26 08:07:06;;;;;;;17.35;10.40;;;;;;;6.82;nan;101935.78;5088201;28;20024;-54
2021/10/26 08:09:33;;;;;;;17.15;10.50;;;;;;;6.77;nan;101935.53;5086431;28;20267;-54
2021/10/26 08:11:58;;;;;;;20.00;11.32;;;;;;;6.90;nan;101930.31;5087538;28;20482;-54
2021/10/26 08:14:24;;;;;;;17.77;11.65;;;;;;;7.06;nan;101925.69;5088312;28;20035;-57
2021/10/26 08:16:49;;;;;;;19.27;11.82;;;;;;;7.21;nan;101918.41;5087425;28;20031;-56
2021/10/26 08:19:15;;;;;;;27.15;13.05;;;;;;;7.28;nan;101927.25;5085647;28;20031;-54
2021/10/26 08:21:42;;;;;;;19.70;12.23;;;;;;;7.37;nan;101926.06;5086892;28;20053;-57
2021/10/26 08:24:08;;;;;;;22.38;12.73;;;;;;;7.46;nan;101924.88;5087302;28;20047;-57
2021/10/26 08:26:47;;;;;;;20.05;12.18;;;;;;;7.52;nan;101934.72;5086145;28;20033;-55
2021/10/26 08:29:19;;;;;;;24.38;12.68;;;;;;;7.55;nan;101928.19;5087007;28;20389;-56
2021/10/26 08:36:42;;;;;;;21.27;12.25;;;;;;;7.74;nan;101937.28;5086946;28;20030;-58
2021/10/26 08:39:09;;;;;;;23.23;12.40;;;;;;;7.82;nan;101937.94;5086592;28;20023;-55
2021/10/26 08:41:36;;;;;;;24.55;12.05;;;;;;;7.92;nan;101940.22;5088190;28;20028;-56
2021/10/26 08:44:02;;;;;;;19.38;11.95;;;;;;;8.04;nan;101933.25;5090844;28;20036;-55
2021/10/26 08:46:28;;;;;;;19.33;11.45;;;;;;;8.08;nan;101937.19;5091946;28;20039;-57
2021/10/26 08:48:54;;;;;;;17.92;10.85;;;;;;;8.18;nan;101924.25;5087630;28;20023;-56
2021/10/26 08:51:24;;;;;;;19.80;12.82;;;;;;;8.25;nan;101928.75;5091790;28;20379;-56
2021/10/26 08:53:53;;;;;;;19.60;11.63;;;;;;;8.44;nan;101928.03;5091087;28;20038;-55
2021/10/26 08:56:20;;;;;;;19.70;12.43;;;;;;;8.54;nan;101933.75;5090687;28;20504;-54
2021/10/26 08:58:46;;;;;;;21.83;11.15;;;;;;;8.72;nan;101935.81;5088959;28;20028;-56
2021/10/26 09:01:12;;;;;;;21.08;12.10;;;;;;;8.77;nan;101934.16;5090827;28;20023;-58
2021/10/26 09:03:39;;;;;;;20.17;12.82;;;;;;;8.82;nan;101936.22;5090782;28;20148;-56
2021/10/26 09:06:06;;;;;;;20.45;12.25;;;;;;;8.98;nan;101929.63;5090516;28;20024;-57
2021/10/26 09:08:32;;;;;;;22.70;11.55;;;;;;;9.03;nan;101927.13;5090588;28;20032;-56
2021/10/26 09:11:23;;;;;;;20.13;11.23;;;;;;;9.26;nan;101922.13;5089710;28;20218;-56
2021/10/26 09:19:20;;;;;;;20.08;11.85;;;;;;;9.60;nan;101922.84;5092828;28;20039;-56
2021/10/26 09:21:56;;;;;;;25.95;13.30;;;;;;;9.69;nan;101926.88;5090588;28;20177;-55
2021/10/26 09:24:22;;;;;;;25.08;13.93;;;;;;;9.62;nan;101932.28;5088593;28;20027;-55
2021/10/26 09:27:02;;;;;;;25.50;12.80;;;;;;;9.71;nan;101940.09;5089206;28;20094;-56
2021/10/26 09:29:28;;;;;;;22.90;13.80;;;;;;;9.82;nan;101942.88;5088041;28;20016;-58
2021/10/26 09:32:14;;;;;;;22.70;13.07;;;;;;;9.90;nan;101950.69;5089917;28;20027;-55
2021/10/26 09:34:49;;;;;;;29.58;13.48;;;;;;;10.06;nan;101951.22;5090491;28;20427;-59
2021/10/26 09:37:20;;;;;;;26.08;12.95;;;;;;;10.14;nan;101951.78;5091045;28;20170;-57
2021/10/26 09:39:56;;;;;;;25.75;13.30;;;;;;;10.07;nan;101960.91;5088552;28;20051;-54
2021/10/26 09:42:38;;;;;;;21.95;12.15;;;;;;;10.05;nan;101953.06;5087159;28;20024;-58
2021/10/26 09:45:04;;;;;;;26.42;13.20;;;;;;;9.99;nan;101961.97;5090598;28;20023;-55
2021/10/26 09:47:36;;;;;;;25.42;13.40;;;;;;;10.04;nan;101963.97;5089405;28;20039;-55
2021/10/26 09:50:08;;;;;;;24.65;13.48;;;;;;;9.98;nan;101966.50;5089946;28;20415;-57
2021/10/26 09:52:43;;;;;;;25.10;13.57;;;;;;;9.87;nan;101967.16;5089370;28;20038;-57
2021/10/26 09:55:21;;;;;;;26.08;14.15;;;;;;;9.87;nan;101969.00;5089810;28;20034;-55
2021/10/26 09:57:48;;;;;;;27.98;14.05;;;;;;;9.87;nan;101967.16;5088696;28;20035;-57
2021/10/26 10:00:19;;;;;;;22.88;14.20;;;;;;;9.85;nan;101963.88;5090266;28;20387;-56
2021/10/26 10:03:13;;;;;;;28.00;14.05;;;;;;;9.94;nan;101962.59;5088908;28;20027;-56
2021/10/26 10:05:59;;;;;;;25.27;13.40;;;;;;;10.05;nan;101966.44;5090469;28;20028;-57
2021/10/26 10:08:28;;;;;;;24.33;13.98;;;;;;;10.08;nan;101957.19;5085994;28;20443;-54
2021/10/26 10:11:13;;;;;;;24.42;13.25;;;;;;;10.21;nan;101962.47;5089055;28;20071;-54
2021/10/26 10:13:54;;;;;;;24.23;13.38;;;;;;;10.36;nan;101965.66;5089248;28;20308;-57
2021/10/26 10:16:21;;;;;;;27.08;14.10;;;;;;;10.55;nan;101956.66;5064977;28;20074;-58
2021/10/26 10:18:48;;;;;;;26.95;14.00;;;;;;;10.68;nan;101957.59;5088780;28;20355;-54
2021/10/26 10:21:16;;;;;;;29.13;13.77;;;;;;;10.69;nan;101953.88;5089378;28;20052;-57
2021/10/26 10:23:43;;;;;;;26.88;14.00;;;;;;;10.80;nan;101945.94;5088925;28;20598;-57
2021/10/26 10:26:16;;;;;;;27.77;15.38;;;;;;;10.72;nan;101948.06;5089434;28;20023;-56
2021/10/26 10:28:47;;;;;;;29.02;14.68;;;;;;;10.79;nan;101948.84;5089080;28;20028;-59
2021/10/26 10:31:25;;;;;;;25.42;13.70;;;;;;;10.93;nan;101950.34;5088878;28;20167;-55
2021/10/26 10:33:52;;;;;;;28.15;14.90;;;;;;;10.97;nan;101943.53;5089633;28;20023;-54
2021/10/26 10:36:22;;;;;;;28.30;12.98;;;;;;;11.23;nan;101938.91;5088667;28;20020;-58
2021/10/26 10:38:51;;;;;;;27.05;14.52;;;;;;;11.68;nan;101942.13;5088916;28;20058;-57
2021/10/26 10:41:25;;;;;;;24.63;14.20;;;;;;;11.93;nan;101944.69;5085251;28;20436;-58
2021/10/26 10:43:52;;;;;;;28.92;14.45;;;;;;;12.19;nan;101944.31;5089077;28;20148;-56
2021/10/26 10:46:38;;;;;;;23.45;14.00;;;;;;;12.18;nan;101937.28;5088200;28;20073;-55
2021/10/26 10:49:18;;;;;;;;;;;;;;;12.33;nan;101936.88;5088098;28;20032;-56
2021/10/26 10:52:04;;;;;;;29.55;14.45;;;;;;;12.44;nan;101932.56;5087960;28;19916;-57
2021/10/26 10:54:48;;;;;;;24.85;13.68;;;;;;;12.44;nan;101928.03;5084541;28;20020;-56
2021/10/26 10:57:34;;;;;;;26.42;13.82;;;;;;;12.46;nan;101928.59;5086102;28;20031;-58
2021/10/26 11:00:18;;;;;;;27.60;14.68;;;;;;;12.38;nan;101932.44;5088168;28;20024;-58
2021/10/26 11:02:46;;;;;;;25.63;13.85;;;;;;;12.37;nan;101929.97;5089233;28;20557;-58
2021/10/26 11:05:30;;;;;;;22.67;13.52;;;;;;;12.15;nan;101943.13;5088735;28;20051;-56
2021/10/26 11:07:56;;;;;;;29.70;14.88;;;;;;;12.23;nan;101939.31;5088443;28;20019;-57
2021/10/26 11:10:22;;;;;;;24.80;13.68;;;;;;;12.25;nan;101945.28;5088418;28;20024;-59
2021/10/26 11:12:50;;;;;;;28.27;13.15;;;;;;;12.20;nan;101935.19;5087443;28;20107;-58
2021/10/26 11:15:22;;;;;;;33.28;14.77;;;;;;;12.22;nan;101937.69;5085532;28;20027;-55
2021/10/26 11:17:52;;;;;;;24.98;14.70;;;;;;;12.32;nan;101933.34;5087815;28;20400;-58
2021/10/26 11:20:30;;;;;;;28.92;14.50;;;;;;;12.28;nan;101950.19;5085091;28;20020;-58
2021/10/26 11:23:03;;;;;;;23.95;13.57;;;;;;;12.20;nan;101945.94;5086761;28;20024;-55
2021/10/26 11:25:34;;;;;;;30.33;14.73;;;;;;;12.21;nan;101952.97;5090411;28;20027;-59
2021/10/26 11:28:24;;;;;;;27.63;13.63;;;;;;;12.29;nan;101944.56;5085869;28;20047;-58
2021/10/26 11:30:55;;;;;;;24.33;13.38;;;;;;;12.26;nan;101950.41;5082550;28;20493;-57
2021/10/26 11:33:23;;;;;;;27.33;14.40;;;;;;;12.27;nan;101951.22;5081792;28;20570;-58
2021/10/26 11:36:00;;;;;;;26.63;13.40;;;;;;;12.25;nan;101953.34;5081338;28;20497;-59
2021/10/26 11:38:32;;;;;;;24.95;14.57;;;;;;;12.29;nan;101949.94;5086409;28;20043;-57
2021/10/26 11:41:05;;;;;;;24.17;14.15;;;;;;;12.28;nan;101948.31;5082605;28;20028;-57
2021/10/26 11:44:02;;;;;;;23.30;14.07;;;;;;;12.31;nan;101945.16;5085521;28;20035;-58
2021/10/26 11:46:40;;;;;;;28.17;13.95;;;;;;;12.28;nan;101940.25;5068466;28;20089;-59